Date,TemperatureHighF,TemperatureAvgF,TemperatureLowF,DewpointHighF,DewpointAvgF,DewpointLowF,HumidityHigh,HumidityAvg,HumidityLow,PressureMaxIn,PressureMinIn,WindSpeedMaxMPH,WindSpeedAvgMPH,GustSpeedMaxMPH,PrecipitationSumIn
2013-7-1,85.0,75.0,67.0,68.5,62.6,59.2,85,66,51,29.98,29.86,10,1,16,0.00
2013-7-2,79.1,69.7,62.3,63.2,58.1,53.2,88,68,44,30.07,29.99,14,3,24,0.00
2013-7-3,76.9,66.8,59.8,58.6,53.2,47.6,74,63,43,30.11,30.00,12,3,16,0.00
2013-7-4,69.1,62.6,58.1,56.2,54.1,51.6,86,74,58,30.08,29.99,10,2,13,0.00
2013-7-5,72.4,64.4,57.0,58.3,55.8,53.5,90,74,59,30.00,29.92,11,2,15,0.00
2013-7-6,76.5,66.3,58.4,60.2,56.7,53.2,93,73,45,29.95,29.82,10,1,21,0.00
2013-7-7,74.9,65.5,59.0,62.5,58.2,54.4,93,78,62,29.92,29.83,11,2,14,0.00
2013-7-8,78.1,64.8,57.2,60.9,56.7,53.7,89,77,48,30.05,29.90,13,3,14,0.00
2013-7-9,81.5,69.9,60.7,59.8,57.6,53.6,91,67,44,30.06,29.95,12,2,16,0.00
2013-7-10,70.1,62.9,58.8,59.0,55.2,51.4,86,77,65,30.03,29.91,14,2,17,0.00
2013-7-11,70.1,61.7,56.4,52.9,50.9,47.5,82,69,52,30.05,29.96,11,3,16,0.02
2013-7-12,71.9,69.1,66.4,55.5,53.3,50.6,63,57,54,30.07,29.97,0,0,0,0.00
2013-7-13,76.2,73.1,69.1,55.4,53.2,50.5,57,50,41,30.17,30.08,0,0,0,0.00
2013-7-14,77.3,74.3,70.1,55.2,53.5,50.7,56,49,41,30.10,29.95,0,0,0,0.00
2013-7-19,66.1,65.2,64.4,58.9,58.7,58.4,82,80,77,30.02,30.02,3,0,5,0.00
2013-7-20,64.3,59.6,57.5,58.8,56.1,55.1,93,89,82,30.03,30.02,5,1,9,0.00
2013-7-21,73.0,69.9,63.2,62.9,61.1,58.9,86,74,67,29.92,29.86,9,3,12,0.00
2013-7-22,77.9,64.7,56.6,62.0,58.0,55.1,96,81,51,30.02,29.90,11,2,11,0.00
2013-7-23,82.9,69.7,60.3,59.0,57.0,52.5,89,67,36,30.00,29.92,9,1,11,0.00
2013-7-24,83.0,71.0,62.4,57.9,54.2,49.0,77,58,36,29.99,29.94,9,1,12,0.00
2013-7-25,82.6,70.0,58.9,57.9,54.2,50.4,86,60,36,30.06,29.99,10,2,13,0.00
2013-7-26,82.3,68.7,59.0,57.8,53.0,44.3,86,60,29,30.11,30.03,16,3,18,0.00
2013-7-27,76.4,65.2,56.8,56.6,53.5,50.6,86,67,45,30.13,29.95,11,2,17,0.00
2013-7-28,67.5,59.9,54.5,56.6,54.1,52.1,92,82,67,29.99,29.91,15,4,19,0.00
2013-7-29,69.0,60.5,57.3,60.7,54.9,52.8,86,82,69,29.97,29.93,10,1,10,0.00
2013-7-30,75.5,65.0,56.9,59.8,57.0,53.7,90,76,56,30.09,29.96,11,3,13,0.00
2013-7-31,68.6,62.1,56.7,62.7,58.2,55.4,97,88,76,30.08,29.95,9,2,14,0.00